Time;durP1;ratioP1;P1;durP2;ratioP2;P2;SDS_P1;SDS_P2;PMS_P1;PMS_P2;Temp;Humidity;BMP_temperature;BMP_pressure;BME280_temperature;BME280_humidity;BME280_pressure;Samples;Min_cycle;Max_cycle;Signal;HPM_P1;HPM_P2
2023/04/10 00:01:22;;;;;;;;;;;;;;;7.05;68.96;99588.03;5001229;28;19926;-75
2023/04/10 00:03:47;;;;;;;;;;;;;;;7.07;69.83;99595.78;5006299;28;19922;-75
2023/04/10 00:06:12;;;;;;;;;;;;;;;6.97;69.79;99590.88;5006062;28;19930;-76
2023/04/10 00:08:37;;;;;;;;;;;;;;;7.00;70.06;99593.13;4988728;28;19921;-76
2023/04/10 00:11:03;;;;;;;;;;;;;;;7.09;69.77;99589.25;5004169;28;19929;-75
2023/04/10 00:13:28;;;;;;;;;;;;;;;7.02;69.55;99587.63;5012131;28;19921;-76
2023/04/10 00:15:54;;;;;;;;;;;;;;;6.99;69.67;99585.41;5006687;28;20396;-76
2023/04/10 00:18:19;;;;;;;;;;;;;;;6.95;69.94;99584.16;4991140;28;19921;-77
2023/04/10 00:20:44;;;;;;;;;;;;;;;6.96;69.77;99599.88;5005622;28;19963;-76
2023/04/10 00:23:09;;;;;;;;;;;;;;;6.94;69.12;99596.63;5003358;28;19972;-76
2023/04/10 00:25:35;;;;;;;;;;;;;;;6.88;69.27;99602.72;5004273;28;20099;-75
2023/04/10 00:28:00;;;;;;;;;;;;;;;6.87;69.71;99598.47;5009568;28;20386;-76
2023/04/10 00:30:25;;;;;;;;;;;;;;;6.74;69.63;99609.09;5006850;28;19996;-76
2023/04/10 00:32:50;;;;;;;;;;;;;;;6.83;70.32;99597.25;5008967;28;20028;-76
2023/04/10 00:35:16;;;;;;;;;;;;;;;6.87;70.06;99606.44;5003538;28;19930;-77
2023/04/10 00:37:41;;;;;;;;;;;;;;;6.85;70.02;99600.50;4993984;28;19928;-76
2023/04/10 00:40:07;;;;;;;;;;;;;;;6.83;69.92;99602.56;5006308;28;19925;-76
2023/04/10 00:42:32;;;;;;;;;;;;;;;6.85;69.92;99597.03;5012115;28;19944;-75
2023/04/10 00:44:57;;;;;;;;;;;;;;;6.79;69.95;99599.47;5008974;28;19926;-75
2023/04/10 00:47:23;;;;;;;;;;;;;;;6.77;69.89;99601.53;5003199;28;20445;-76
2023/04/10 00:49:48;;;;;;;;;;;;;;;6.73;69.58;99599.47;5005061;28;19918;-77
2023/04/10 00:52:13;;;;;;;;;;;;;;;6.69;70.20;99600.91;5004201;28;19922;-75
2023/04/10 00:54:39;;;;;;;;;;;;;;;6.66;70.39;99599.50;4989585;28;19921;-76
2023/04/10 00:57:05;;;;;;;;;;;;;;;6.65;70.09;99594.41;5008586;28;21730;-76
2023/04/10 00:59:30;;;;;;;;;;;;;;;6.72;69.33;99596.03;5006363;28;20286;-76
2023/04/10 01:01:56;;;;;;;;;;;;;;;6.62;70.64;99594.78;5006140;28;20016;-77
2023/04/10 01:04:22;;;;;;;;;;;;;;;6.46;70.09;99558.09;5002035;28;19921;-76
2023/04/10 01:06:47;;;;;;;;;;;;;;;6.63;70.01;99589.31;5004224;28;19925;-78
2023/04/10 01:09:12;;;;;;;;;;;;;;;6.60;69.73;99592.34;5002910;28;19921;-76
2023/04/10 01:11:52;;;;;;;;;;;;;;;6.56;70.52;99577.06;5006387;28;20032;-76
2023/04/10 01:14:36;;;;;;;;;;;;;;;6.57;70.56;99578.69;5006784;28;19929;-76
2023/04/10 01:17:06;;;;;;;;;;;;;;;6.56;70.36;99572.56;5000569;28;19925;-78
2023/04/10 01:19:50;;;;;;;;;;;;;;;6.58;70.26;99575.00;5002876;28;20364;-78
2023/04/10 01:22:16;;;;;;;;;;;;;;;6.46;70.94;99555.44;5003721;28;20012;-78
2023/04/10 01:24:49;;;;;;;;;;;;;;;6.57;70.38;99579.53;5003534;28;20057;-76
2023/04/10 01:27:14;;;;;;;;;;;;;;;6.60;69.64;99586.22;5002524;28;20052;-77
2023/04/10 01:29:44;;;;;;;;;;;;;;;6.57;69.92;99586.66;5002267;28;20060;-76
2023/04/10 01:32:13;;;;;;;;;;;;;;;6.61;70.89;99585.22;5000836;28;19969;-79
2023/04/10 01:34:47;;;;;;;;;;;;;;;6.60;70.99;99591.53;4992150;28;20010;-77
2023/04/10 01:37:15;;;;;;;;;;;;;;;6.55;70.46;99578.88;4991570;28;20310;-77
2023/04/10 01:39:42;;;;;;;;;;;;;;;6.51;70.09;99592.78;5002768;28;19956;-76
2023/04/10 01:42:09;;;;;;;;;;;;;;;6.54;70.90;99584.41;5009509;28;19917;-76
2023/04/10 01:44:37;;;;;;;;;;;;;;;6.58;70.45;99588.28;4993305;28;19929;-77
2023/04/10 01:47:03;;;;;;;;;;;;;;;6.47;71.18;99588.88;5010129;28;20028;-77
2023/04/10 01:49:29;;;;;;;;;;;;;;;6.49;70.28;99586.84;5007371;28;19917;-77
2023/04/10 01:51:57;;;;;;;;;;;;;;;6.49;70.99;99592.97;5011613;28;19932;-77
2023/04/10 01:54:24;;;;;;;;;;;;;;;6.49;70.52;99582.34;5010993;28;19929;-76
2023/04/10 01:56:50;;;;;;;;;;;;;;;6.47;70.60;99584.41;5005285;28;19921;-76
2023/04/10 01:59:15;;;;;;;;;;;;;;;6.53;70.52;99585.44;5011930;28;19933;-77
2023/04/10 02:01:40;;;;;;;;;;;;;;;6.48;70.46;99580.75;5008169;28;19926;-77
2023/04/10 02:04:06;;;;;;;;;;;;;;;6.48;70.13;99575.44;5006986;28;19921;-77
2023/04/10 02:06:55;;;;;;;;;;;;;;;6.50;70.03;99578.69;4997839;28;19932;-76
2023/04/10 02:09:20;;;;;;;;;;;;;;;6.48;70.37;99579.91;5008037;28;20004;-75
2023/04/10 02:11:53;;;;;;;;;;;;;;;6.46;70.50;99588.09;5014329;28;19933;-77
2023/04/10 02:14:20;;;;;;;;;;;;;;;6.39;70.63;99578.50;5012913;28;19923;-75
2023/04/10 02:16:45;;;;;;;;;;;;;;;6.40;70.27;99577.47;5005753;28;19926;-76
2023/04/10 02:19:11;;;;;;;;;;;;;;;6.38;70.89;99569.72;5010294;28;20118;-76
2023/04/10 02:21:38;;;;;;;;;;;;;;;6.33;71.16;99577.47;5012193;28;20432;-76
2023/04/10 02:24:04;;;;;;;;;;;;;;;6.32;70.74;99577.66;5007100;28;20020;-75
2023/04/10 02:26:30;;;;;;;;;;;;;;;6.33;70.81;99574.81;5002444;28;20036;-76
2023/04/10 02:28:55;;;;;;;;;;;;;;;6.26;71.18;99575.81;4995047;28;20020;-77
2023/04/10 02:31:20;;;;;;;;;;;;;;;6.24;70.46;99572.56;5007049;28;19969;-77
2023/04/10 02:33:46;;;;;;;;;;;;;;;6.19;70.74;99562.56;5011117;28;19968;-77
2023/04/10 02:36:11;;;;;;;;;;;;;;;6.18;70.91;99568.09;5008138;28;19922;-76
2023/04/10 02:38:36;;;;;;;;;;;;;;;6.19;70.76;99570.53;5015846;28;19940;-76
2023/04/10 02:41:02;;;;;;;;;;;;;;;6.26;71.19;99567.88;5013692;28;20370;-76
2023/04/10 02:43:28;;;;;;;;;;;;;;;6.21;70.84;99559.72;5014493;28;19920;-77
2023/04/10 02:45:53;;;;;;;;;;;;;;;6.14;70.86;99557.06;5009045;28;20947;-76
2023/04/10 02:48:19;;;;;;;;;;;;;;;6.11;70.88;99567.25;5015678;28;19925;-77
2023/04/10 02:50:46;;;;;;;;;;;;;;;6.07;70.85;99557.03;4995351;28;20369;-77
2023/04/10 02:53:15;;;;;;;;;;;;;;;6.05;70.57;99564.38;5007868;28;19969;-77
2023/04/10 02:55:40;;;;;;;;;;;;;;;6.03;71.22;99570.91;5011226;28;20397;-75
2023/04/10 02:58:06;;;;;;;;;;;;;;;6.05;70.97;99563.56;5011868;28;19917;-75
2023/04/10 03:00:32;;;;;;;;;;;;;;;5.99;71.48;99557.25;5008887;28;20451;-75
2023/04/10 03:02:57;;;;;;;;;;;;;;;5.98;71.19;99555.59;5002566;28;19945;-75
2023/04/10 03:05:22;;;;;;;;;;;;;;;6.01;71.16;99559.69;5004773;28;19948;-75
2023/04/10 03:07:47;;;;;;;;;;;;;;;6.00;71.41;99560.72;4998136;28;19922;-75
2023/04/10 03:10:13;;;;;;;;;;;;;;;6.00;70.57;99553.59;5003560;28;19952;-75
2023/04/10 03:12:38;;;;;;;;;;;;;;;5.96;71.26;99552.34;5009094;28;19925;-74
2023/04/10 03:15:03;;;;;;;;;;;;;;;5.95;70.60;99557.84;4985149;28;19925;-75
2023/04/10 03:17:29;;;;;;;;;;;;;;;5.98;71.31;99550.31;5004449;28;20297;-75
2023/04/10 03:19:54;;;;;;;;;;;;;;;5.94;70.95;99551.72;5006375;28;19936;-76
2023/04/10 03:22:19;;;;;;;;;;;;;;;5.96;70.64;99549.69;5004399;28;19925;-76
2023/04/10 03:24:45;;;;;;;;;;;;;;;5.94;70.48;99551.72;5000255;28;19921;-75
2023/04/10 03:27:10;;;;;;;;;;;;;;;5.91;70.79;99551.31;5003804;28;20483;-76
2023/04/10 03:29:35;;;;;;;;;;;;;;;5.89;71.43;99548.06;5006711;28;19922;-75
2023/04/10 03:32:00;;;;;;;;;;;;;;;5.89;70.66;99551.53;5011580;28;20023;-76
2023/04/10 03:34:26;;;;;;;;;;;;;;;5.88;70.92;99539.28;5011589;28;20282;-76
2023/04/10 03:36:51;;;;;;;;;;;;;;;5.89;70.42;99546.22;5003268;28;19921;-76
2023/04/10 03:39:16;;;;;;;;;;;;;;;5.87;71.11;99537.69;5004409;28;20309;-75
2023/04/10 03:41:41;;;;;;;;;;;;;;;5.79;71.16;99532.50;5011410;28;19931;-78
2023/04/10 03:44:07;;;;;;;;;;;;;;;5.84;71.28;99532.78;4986499;28;20669;-77
2023/04/10 03:46:32;;;;;;;;;;;;;;;5.81;70.84;99525.19;4989223;28;20406;-77
2023/04/10 03:48:57;;;;;;;;;;;;;;;5.82;71.36;99526.00;5009293;28;19960;-76
2023/04/10 03:51:23;;;;;;;;;;;;;;;5.82;70.56;99532.13;5001987;28;20020;-77
2023/04/10 03:53:48;;;;;;;;;;;;;;;5.80;70.85;99526.22;5005220;28;20033;-77
2023/04/10 03:56:14;;;;;;;;;;;;;;;5.76;71.39;99522.34;4999716;28;19932;-78
2023/04/10 03:58:39;;;;;;;;;;;;;;;5.73;71.31;99524.56;4990411;28;20864;-76
2023/04/10 04:01:04;;;;;;;;;;;;;;;5.75;71.06;99530.47;5003796;28;19932;-78
2023/04/10 04:03:30;;;;;;;;;;;;;;;5.71;71.33;99522.13;5004674;28;19922;-78
2023/04/10 04:05:55;;;;;;;;;;;;;;;5.67;70.71;99517.41;5003346;28;19938;-77
2023/04/10 04:08:20;;;;;;;;;;;;;;;5.66;70.79;99527.19;5007190;28;19924;-77
2023/04/10 04:10:45;;;;;;;;;;;;;;;5.63;71.20;99524.97;5008738;28;19925;-78
2023/04/10 04:13:10;;;;;;;;;;;;;;;5.63;71.52;99530.25;4989763;28;19975;-77
2023/04/10 04:15:36;;;;;;;;;;;;;;;5.67;71.02;99525.38;5006519;28;19921;-78
2023/04/10 04:18:01;;;;;;;;;;;;;;;5.65;70.95;99522.94;5005965;28;19944;-77
2023/04/10 04:20:26;;;;;;;;;;;;;;;5.61;71.49;99513.75;5003414;28;19925;-79
2023/04/10 04:22:51;;;;;;;;;;;;;;;5.66;70.84;99511.28;5004948;28;19928;-78
2023/04/10 04:25:18;;;;;;;;;;;;;;;5.62;71.35;99522.50;4990064;28;20307;-78
2023/04/10 04:27:43;;;;;;;;;;;;;;;5.53;71.53;99516.56;5005092;28;20393;-78
2023/04/10 04:30:09;;;;;;;;;;;;;;;5.58;71.18;99516.78;5009514;28;19968;-77
2023/04/10 04:32:34;;;;;;;;;;;;;;;5.56;71.16;99515.34;5008837;28;19929;-76
2023/04/10 04:35:00;;;;;;;;;;;;;;;5.51;71.79;99521.25;5004615;28;19922;-76
2023/04/10 04:37:25;;;;;;;;;;;;;;;5.52;71.75;99527.38;5004819;28;19999;-78
2023/04/10 04:39:50;;;;;;;;;;;;;;;5.51;71.11;99520.41;5009281;28;19922;-78
2023/04/10 04:42:15;;;;;;;;;;;;;;;5.45;71.03;99527.34;5010585;28;19922;-77
2023/04/10 04:44:40;;;;;;;;;;;;;;;5.46;71.46;99530.81;4992732;28;19921;-77
2023/04/10 04:47:06;;;;;;;;;;;;;;;5.45;71.44;99532.63;5005662;28;19932;-77
2023/04/10 04:49:31;;;;;;;;;;;;;;;5.44;71.84;99538.94;5005033;28;19955;-78
2023/04/10 04:51:56;;;;;;;;;;;;;;;5.44;71.38;99528.34;4989384;28;19925;-78
2023/04/10 04:54:21;;;;;;;;;;;;;;;5.46;71.36;99521.00;5006447;28;19917;-78
2023/04/10 04:56:47;;;;;;;;;;;;;;;5.46;71.28;99528.97;5003223;28;20034;-78
2023/04/10 04:59:12;;;;;;;;;;;;;;;5.48;71.77;99534.06;5005993;28;19921;-78
2023/04/10 05:01:37;;;;;;;;;;;;;;;5.52;71.74;99524.72;4993547;28;20385;-77
2023/04/10 05:04:02;;;;;;;;;;;;;;;5.48;71.37;99526.97;5004674;28;20421;-77
2023/04/10 05:06:28;;;;;;;;;;;;;;;5.53;71.89;99529.81;5003147;28;19925;-77
2023/04/10 05:08:53;;;;;;;;;;;;;;;5.53;71.73;99529.81;4988553;28;19921;-78
2023/04/10 05:11:18;;;;;;;;;;;;;;;5.54;71.93;99528.78;5002716;28;19930;-78
2023/04/10 05:13:43;;;;;;;;;;;;;;;5.60;71.35;99532.47;4976167;28;19929;-76
2023/04/10 05:16:08;;;;;;;;;;;;;;;5.67;71.92;99531.47;5002329;28;20012;-77
2023/04/10 05:18:34;;;;;;;;;;;;;;;5.73;71.56;99532.50;5004217;28;19980;-76
2023/04/10 05:20:59;;;;;;;;;;;;;;;5.62;71.42;99533.09;5005022;28;19980;-76
2023/04/10 05:23:24;;;;;;;;;;;;;;;5.68;72.03;99534.94;5004534;28;19929;-76
2023/04/10 05:25:50;;;;;;;;;;;;;;;5.70;71.73;99539.00;5005573;28;19925;-77
2023/04/10 05:28:15;;;;;;;;;;;;;;;5.63;71.85;99534.72;4990426;28;19929;-78
2023/04/10 05:30:40;;;;;;;;;;;;;;;5.64;72.73;99542.47;5001411;28;20382;-77
2023/04/10 05:33:05;;;;;;;;;;;;;;;5.65;72.26;99544.09;5002780;28;20559;-74
2023/04/10 05:35:30;;;;;;;;;;;;;;;5.77;72.66;99533.72;5002769;28;20643;-75
2023/04/10 05:37:57;;;;;;;;;;;;;;;5.81;72.51;99545.56;5010387;28;20301;-75
2023/04/10 05:40:23;;;;;;;;;;;;;;;5.78;73.09;99543.31;4988980;28;19926;-75
2023/04/10 05:42:48;;;;;;;;;;;;;;;5.88;72.89;99549.88;4990302;28;19976;-75
2023/04/10 05:45:13;;;;;;;;;;;;;;;5.89;72.80;99545.41;5003121;28;19940;-76
2023/04/10 05:47:39;;;;;;;;;;;;;;;5.88;72.19;99546.41;4989107;28;19917;-77
2023/04/10 05:50:04;;;;;;;;;;;;;;;5.69;73.81;99541.88;5004170;28;19914;-77
2023/04/10 05:52:30;;;;;;;;;;;;;;;5.78;73.02;99544.16;5001485;28;20429;-76
2023/04/10 05:54:55;;;;;;;;;;;;;;;5.74;73.65;99539.44;5003580;28;19925;-76
2023/04/10 05:57:20;;;;;;;;;;;;;;;5.94;73.39;99546.44;5005436;28;19936;-77
2023/04/10 05:59:45;;;;;;;;;;;;;;;5.82;73.24;99540.06;5007575;28;19922;-76
2023/04/10 06:02:11;;;;;;;;;;;;;;;5.90;73.46;99544.38;5000558;28;19964;-77
2023/04/10 06:04:36;;;;;;;;;;;;;;;5.90;73.36;99552.31;5008531;28;19929;-76
2023/04/10 06:07:01;;;;;;;;;;;;;;;5.91;73.50;99551.31;5003708;28;19917;-77
2023/04/10 06:09:26;;;;;;;;;;;;;;;5.91;73.85;99546.84;5004188;28;19970;-76
2023/04/10 06:11:52;;;;;;;;;;;;;;;5.93;73.51;99555.41;5009138;28;19933;-76
2023/04/10 06:14:18;;;;;;;;;;;;;;;5.87;74.65;99550.09;5009801;28;19968;-77
2023/04/10 06:16:43;;;;;;;;;;;;;;;5.50;78.64;99554.03;5003491;28;19925;-75
2023/04/10 06:19:09;;;;;;;;;;;;;;;5.32;79.62;99544.00;5005286;28;20004;-78
2023/04/10 06:21:34;;;;;;;;;;;;;;;5.21;80.48;99549.84;5004871;28;20007;-76
2023/04/10 06:23:59;;;;;;;;;;;;;;;5.68;76.27;99546.34;5002645;28;19925;-76
2023/04/10 06:26:25;;;;;;;;;;;;;;;5.68;78.80;99546.34;5006524;28;19967;-78
2023/04/10 06:28:50;;;;;;;;;;;;;;;5.95;76.18;99549.91;5007368;28;20354;-78
2023/04/10 06:31:20;;;;;;;;;;;;;;;5.96;75.45;99552.34;5014025;28;19913;-77
2023/04/10 06:33:46;;;;;;;;;;;;;;;6.10;74.59;99549.72;5012212;28;19967;-78
2023/04/10 06:36:11;;;;;;;;;;;;;;;5.92;77.16;99547.63;5012145;28;19921;-78
2023/04/10 06:38:37;;;;;;;;;;;;;;;6.04;76.04;99552.16;4993054;28;19972;-78
2023/04/10 06:41:03;;;;;;;;;;;;;;;6.22;74.26;99548.09;4989837;28;19921;-76
2023/04/10 06:43:30;;;;;;;;;;;;;;;6.21;75.24;99541.16;5007307;28;19937;-76
2023/04/10 06:45:55;;;;;;;;;;;;;;;6.13;77.92;99544.00;5004741;28;19922;-78
2023/04/10 06:48:21;;;;;;;;;;;;;;;6.24;75.09;99538.09;5003131;28;20283;-77
2023/04/10 06:50:46;;;;;;;;;;;;;;;6.33;74.80;99534.25;4989618;28;20131;-76
2023/04/10 06:53:11;;;;;;;;;;;;;;;6.34;75.35;99530.56;5012042;28;20064;-76
2023/04/10 06:55:37;;;;;;;;;;;;;;;6.26;77.19;99534.25;4991127;28;20401;-79
2023/04/10 06:58:02;;;;;;;;;;;;;;;6.51;74.05;99537.88;5002010;28;19928;-77
2023/04/10 07:00:27;;;;;;;;;;;;;;;6.69;73.49;99534.59;4989227;28;19917;-77
2023/04/10 07:02:53;;;;;;;;;;;;;;;6.68;73.66;99535.66;5004358;28;19925;-76
2023/04/10 07:05:18;;;;;;;;;;;;;;;6.67;74.60;99528.69;5007480;28;19980;-76
2023/04/10 07:07:43;;;;;;;;;;;;;;;6.58;74.99;99529.94;5003328;28;20401;-75
2023/04/10 07:10:09;;;;;;;;;;;;;;;6.56;75.89;99524.84;5007873;28;19921;-76
2023/04/10 07:12:34;;;;;;;;;;;;;;;6.88;74.70;99522.34;5007236;28;19952;-76
2023/04/10 07:14:59;;;;;;;;;;;;;;;7.00;73.48;99516.19;5004274;28;20056;-76
2023/04/10 07:17:25;;;;;;;;;;;;;;;6.86;75.28;99514.56;5006097;28;19917;-76
2023/04/10 07:19:50;;;;;;;;;;;;;;;6.79;78.28;99516.44;5005693;28;20428;-77
2023/04/10 07:22:15;;;;;;;;;;;;;;;7.24;73.67;99512.81;4990544;28;19964;-77
2023/04/10 07:24:40;;;;;;;;;;;;;;;7.06;75.40;99510.03;4999485;28;20279;-76
2023/04/10 07:27:06;;;;;;;;;;;;;;;7.11;77.03;99509.41;4996329;28;19964;-77
2023/04/10 07:29:31;;;;;;;;;;;;;;;7.33;73.89;99503.59;4986201;28;19932;-77
2023/04/10 07:31:56;;;;;;;;;;;;;;;7.30;76.97;99506.66;5004610;28;20032;-76
2023/04/10 07:34:21;;;;;;;;;;;;;;;7.32;75.24;99493.16;5004645;28;19921;-75
2023/04/10 07:36:47;;;;;;;;;;;;;;;7.56;72.98;99493.25;5003463;28;19925;-75
2023/04/10 07:39:12;;;;;;;;;;;;;;;7.50;73.01;99491.44;5009720;28;19921;-74
2023/04/10 07:41:37;;;;;;;;;;;;;;;7.54;73.72;99484.69;5004316;28;20385;-75
2023/04/10 07:44:02;;;;;;;;;;;;;;;7.65;75.98;99482.38;5006793;28;19998;-78
2023/04/10 07:46:28;;;;;;;;;;;;;;;7.73;74.19;99490.09;5002699;28;19917;-75
2023/04/10 07:48:54;;;;;;;;;;;;;;;7.65;76.28;99482.38;4996644;28;19972;-75
2023/04/10 07:51:19;;;;;;;;;;;;;;;7.74;74.64;99489.06;5003322;28;19929;-74
2023/04/10 07:53:45;;;;;;;;;;;;;;;7.72;74.67;99483.13;5004824;28;20275;-75
2023/04/10 07:56:14;;;;;;;;;;;;;;;7.79;75.76;99478.59;5004577;28;20040;-76
2023/04/10 07:58:39;;;;;;;;;;;;;;;7.92;74.42;99475.84;5007806;28;19930;-77
2023/04/10 08:01:08;;;;;;;;;;;;;;;8.04;74.60;99482.91;5005903;28;19929;-76
2023/04/10 08:03:40;;;;;;;;;;;;;;;8.12;73.56;99473.88;5008091;28;20016;-76
2023/04/10 08:06:07;;;;;;;;;;;;;;;8.17;74.03;99477.47;5002339;28;20397;-76
2023/04/10 08:08:33;;;;;;;;;;;;;;;8.18;72.59;99468.50;5002032;28;20031;-75
2023/04/10 08:10:58;;;;;;;;;;;;;;;8.25;72.91;99456.00;5006497;28;20017;-76
2023/04/10 08:13:23;;;;;;;;;;;;;;;8.36;72.85;99453.63;4989315;28;19977;-76
2023/04/10 08:15:49;;;;;;;;;;;;;;;8.45;71.61;99454.97;4990075;28;20017;-76
2023/04/10 08:18:14;;;;;;;;;;;;;;;8.46;71.51;99456.59;4989075;28;19929;-77
2023/04/10 08:20:39;;;;;;;;;;;;;;;8.53;70.76;99442.22;4993360;28;20044;-76
2023/04/10 08:23:05;;;;;;;;;;;;;;;8.62;72.14;99451.53;5005548;28;20009;-76
2023/04/10 08:25:30;;;;;;;;;;;;;;;8.67;70.69;99443.69;5002418;28;20205;-75
2023/04/10 08:27:55;;;;;;;;;;;;;;;8.70;70.86;99443.25;4989315;28;20003;-76
2023/04/10 08:30:20;;;;;;;;;;;;;;;8.79;70.37;99439.25;5007486;28;19929;-75
2023/04/10 08:32:46;;;;;;;;;;;;;;;8.80;69.37;99443.53;4982845;28;19926;-75
2023/04/10 08:35:11;;;;;;;;;;;;;;;8.87;70.05;99441.63;4981041;28;19925;-76
2023/04/10 08:37:36;;;;;;;;;;;;;;;8.84;69.41;99426.09;5000788;28;19921;-75
2023/04/10 08:40:02;;;;;;;;;;;;;;;8.92;70.27;99432.97;5006443;28;19921;-77
2023/04/10 08:42:27;;;;;;;;;;;;;;;8.92;68.43;99423.13;4996499;28;20572;-76
2023/04/10 08:44:52;;;;;;;;;;;;;;;9.06;69.17;99408.59;4999280;28;20004;-76
2023/04/10 08:47:20;;;;;;;;;;;;;;;9.03;69.41;99432.22;4999554;28;20366;-76
2023/04/10 08:49:51;;;;;;;;;;;;;;;9.10;69.35;99416.16;5001842;28;20087;-76
2023/04/10 08:52:20;;;;;;;;;;;;;;;9.22;67.83;99415.16;5007573;28;20433;-75
2023/04/10 08:54:49;;;;;;;;;;;;;;;9.27;68.12;99417.97;5002674;28;19929;-75
2023/04/10 08:57:19;;;;;;;;;;;;;;;9.24;68.57;99421.06;5000866;28;19983;-76
2023/04/10 08:59:45;;;;;;;;;;;;;;;9.38;67.31;99413.72;5043769;23;19929;-79
2023/04/10 09:02:10;;;;;;;;;;;;;;;9.37;67.85;99412.09;4989276;28;19955;-79
2023/04/10 09:04:36;;;;;;;;;;;;;;;9.63;67.59;99406.38;4995080;28;19921;-79
2023/04/10 09:07:02;;;;;;;;;;;;;;;9.54;68.64;99410.41;4990251;28;19922;-79
2023/04/10 09:09:31;;;;;;;;;;;;;;;9.60;68.34;99404.97;4990703;28;19929;-79
2023/04/10 09:11:59;;;;;;;;;;;;;;;9.64;69.00;99402.66;4983354;28;19928;-79
2023/04/10 09:14:32;;;;;;;;;;;;;;;9.63;68.30;99399.19;5001381;28;20008;-79
2023/04/10 09:17:15;;;;;;;;;;;;;;;9.76;68.40;99406.19;4999688;28;19936;-79
2023/04/10 09:19:41;;;;;;;;;;;;;;;9.75;67.99;99399.22;5005659;28;19928;-79
2023/04/10 09:22:06;;;;;;;;;;;;;;;9.76;67.52;99395.53;4986848;28;19929;-80
2023/04/10 09:24:39;;;;;;;;;;;;;;;9.94;66.81;99395.41;4970082;28;19929;-79
2023/04/10 09:27:05;;;;;;;;;;;;;;;10.01;65.10;99379.28;5002620;28;20369;-79
2023/04/10 09:29:38;;;;;;;;;;;;;;;10.24;65.32;99390.00;4987757;28;19976;-79
2023/04/10 09:32:03;;;;;;;;;;;;;;;10.34;65.34;99383.03;5001610;28;19932;-79
2023/04/10 09:34:28;;;;;;;;;;;;;;;10.41;64.81;99370.38;4986522;28;19926;-79
2023/04/10 09:36:54;;;;;;;;;;;;;;;10.51;64.36;99369.78;4984235;28;19929;-79
2023/04/10 09:39:20;;;;;;;;;;;;;;;10.60;64.40;99368.38;4986740;28;19922;-79
2023/04/10 09:41:46;;;;;;;;;;;;;;;10.65;64.44;99354.31;5005529;28;20301;-79
2023/04/10 09:44:11;;;;;;;;;;;;;;;10.68;64.46;99353.84;4988263;28;20038;-79
2023/04/10 09:46:37;;;;;;;;;;;;;;;10.77;63.80;99342.53;4991808;28;20359;-79
2023/04/10 09:49:04;;;;;;;;;;;;;;;10.75;63.19;99341.97;4980346;28;20452;-79
2023/04/10 09:51:34;;;;;;;;;;;;;;;11.00;63.52;99342.47;4983218;28;19949;-79
2023/04/10 09:54:00;;;;;;;;;;;;;;;11.24;63.32;99327.13;4982863;28;19929;-79
2023/04/10 09:56:26;;;;;;;;;;;;;;;11.33;62.63;99318.47;4998129;28;19918;-79
2023/04/10 09:58:55;;;;;;;;;;;;;;;11.49;61.28;99305.38;4971776;28;20325;-79
2023/04/10 10:01:21;;;;;;;;;;;;;;;11.52;60.90;99316.38;4990875;28;19918;-79
2023/04/10 10:03:46;;;;;;;;;;;;;;;11.53;61.35;99306.50;4987728;28;19929;-79
2023/04/10 10:06:11;;;;;;;;;;;;;;;11.46;60.03;99304.00;4982747;28;20006;-79
2023/04/10 10:08:37;;;;;;;;;;;;;;;11.58;61.55;99291.34;4986756;28;19926;-79
2023/04/10 10:11:05;;;;;;;;;;;;;;;11.60;60.29;99291.91;4985700;28;19969;-79
2023/04/10 10:13:35;;;;;;;;;;;;;;;11.64;59.88;99285.03;4988898;28;20060;-79
2023/04/10 10:16:24;;;;;;;;;;;;;;;11.71;59.57;99276.88;4988440;28;19925;-79
2023/04/10 10:18:53;;;;;;;;;;;;;;;11.83;59.07;99278.41;4976782;28;19918;-79
2023/04/10 10:21:19;;;;;;;;;;;;;;;11.79;58.87;99281.81;4989654;28;19917;-80
2023/04/10 10:23:46;;;;;;;;;;;;;;;11.86;58.21;99272.53;4988034;28;19925;-80
2023/04/10 10:26:12;;;;;;;;;;;;;;;12.04;58.44;99263.44;4963596;28;19930;-79
2023/04/10 10:28:39;;;;;;;;;;;;;;;11.96;58.27;99263.88;4984487;28;19945;-80
2023/04/10 10:31:04;;;;;;;;;;;;;;;12.10;58.63;99262.44;4983245;28;19937;-80
2023/04/10 10:33:30;;;;;;;;;;;;;;;12.19;58.38;99260.94;4982593;28;19929;-80
2023/04/10 10:35:59;;;;;;;;;;;;;;;12.33;57.75;99253.38;4988965;28;20328;-80
2023/04/10 10:38:25;;;;;;;;;;;;;;;12.36;58.15;99248.31;4987939;28;19925;-79
2023/04/10 10:41:05;;;;;;;;;;;;;;;12.45;57.51;99254.84;4983449;28;20267;-80
2023/04/10 10:43:39;;;;;;;;;;;;;;;12.50;57.92;99256.78;4980704;28;19968;-80
2023/04/10 10:46:05;;;;;;;;;;;;;;;12.71;58.33;99247.91;4988667;28;19922;-80
2023/04/10 10:48:30;;;;;;;;;;;;;;;12.79;57.13;99247.47;4976367;28;20294;-80
2023/04/10 10:50:57;;;;;;;;;;;;;;;13.05;57.99;99238.63;4997278;28;19919;-80
2023/04/10 10:53:33;;;;;;;;;;;;;;;13.14;57.34;99233.59;4967737;28;19926;-80
2023/04/10 10:55:58;;;;;;;;;;;;;;;13.21;57.41;99236.91;4993413;28;20405;-80
2023/04/10 10:58:42;;;;;;;;;;;;;;;13.22;57.18;99231.25;4984901;28;19973;-80
2023/04/10 11:01:08;;;;;;;;;;;;;;;13.17;56.91;99220.50;4988922;28;20009;-80
2023/04/10 11:03:33;;;;;;;;;;;;;;;13.33;56.76;99227.59;4989838;28;20008;-80
2023/04/10 11:06:01;;;;;;;;;;;;;;;13.45;56.99;99212.13;4973408;28;19933;-80
2023/04/10 11:08:34;;;;;;;;;;;;;;;13.47;56.41;99204.66;4985410;28;19932;-80
2023/04/10 11:11:06;;;;;;;;;;;;;;;13.56;55.99;99196.13;4980130;28;19925;-80
2023/04/10 11:13:32;;;;;;;;;;;;;;;13.76;55.87;99205.06;4981315;28;19984;-79
2023/04/10 11:15:59;;;;;;;;;;;;;;;13.82;55.55;99196.00;4981417;28;19933;-80
2023/04/10 11:18:43;;;;;;;;;;;;;;;14.05;55.58;99190.19;4985393;28;19925;-80
2023/04/10 11:21:09;;;;;;;;;;;;;;;14.07;56.00;99181.88;4986184;28;20025;-79
2023/04/10 11:23:34;;;;;;;;;;;;;;;14.09;56.36;99179.72;4990743;28;19922;-80
2023/04/10 11:26:00;;;;;;;;;;;;;;;14.17;55.13;99172.00;4982961;28;19922;-79
2023/04/10 11:28:32;;;;;;;;;;;;;;;14.18;54.54;99168.25;4983864;28;19964;-79
2023/04/10 11:31:17;;;;;;;;;;;;;;;14.38;54.92;99164.84;4982341;28;19972;-80
2023/04/10 11:33:42;;;;;;;;;;;;;;;14.53;54.42;99159.50;4980450;28;19922;-80
2023/04/10 11:36:10;;;;;;;;;;;;;;;14.80;54.69;99148.50;4981422;28;19930;-80
2023/04/10 11:38:36;;;;;;;;;;;;;;;14.86;54.04;99142.06;4980871;28;20285;-80
2023/04/10 11:41:03;;;;;;;;;;;;;;;14.93;52.42;99134.53;4976336;28;19937;-80
2023/04/10 11:43:29;;;;;;;;;;;;;;;15.05;53.19;99142.34;4991001;28;20272;-80
2023/04/10 11:45:58;;;;;;;;;;;;;;;15.17;52.87;99124.03;4970986;28;19922;-80
2023/04/10 11:48:23;;;;;;;;;;;;;;;15.00;52.95;99118.94;4989801;28;19918;-79
2023/04/10 11:50:49;;;;;;;;;;;;;;;15.24;52.63;99113.81;4988330;28;20270;-79
2023/04/10 11:53:18;;;;;;;;;;;;;;;15.02;52.34;99114.91;4984812;28;19961;-79
2023/04/10 11:55:45;;;;;;;;;;;;;;;14.99;52.78;99106.56;5002927;28;19961;-79
2023/04/10 11:58:27;;;;;;;;;;;;;;;15.12;52.70;99103.31;4973609;28;19922;-79
2023/04/10 12:00:59;;;;;;;;;;;;;;;15.18;52.61;99096.84;4990197;28;19925;-79
2023/04/10 12:03:33;;;;;;;;;;;;;;;15.25;52.38;99086.63;4991448;28;19925;-79
2023/04/10 12:05:59;;;;;;;;;;;;;;;15.20;51.92;99085.84;4988605;28;20313;-79
2023/04/10 12:08:48;;;;;;;;;;;;;;;15.31;52.28;99098.19;4974006;28;19929;-79
2023/04/10 12:11:14;;;;;;;;;;;;;;;15.30;51.43;99083.13;4984817;28;19922;-79
2023/04/10 12:13:40;;;;;;;;;;;;;;;15.35;51.70;99092.00;4988323;28;19980;-79
2023/04/10 12:16:06;;;;;;;;;;;;;;;15.27;50.19;99083.66;4970167;28;19926;-79
2023/04/10 12:18:32;;;;;;;;;;;;;;;15.32;51.54;99065.63;4990353;28;20377;-79
2023/04/10 12:20:58;;;;;;;;;;;;;;;15.25;51.40;99075.06;4988125;28;19933;-79
2023/04/10 12:23:24;;;;;;;;;;;;;;;15.41;51.30;99065.88;4988379;28;19933;-79
2023/04/10 12:25:50;;;;;;;;;;;;;;;15.52;51.06;99054.03;4989976;28;19918;-79
2023/04/10 12:28:19;;;;;;;;;;;;;;;15.55;50.85;99056.97;4990784;28;21425;-79
2023/04/10 12:30:47;;;;;;;;;;;;;;;15.63;51.32;99052.91;4972762;28;19971;-79
2023/04/10 12:33:12;;;;;;;;;;;;;;;15.71;51.35;99050.44;4990350;28;19922;-79
2023/04/10 12:35:38;;;;;;;;;;;;;;;15.92;50.39;99053.03;4989599;28;19925;-80
2023/04/10 12:38:04;;;;;;;;;;;;;;;15.83;51.10;99044.75;4989274;28;19921;-79
2023/04/10 12:40:29;;;;;;;;;;;;;;;16.09;49.46;99048.91;4987834;28;19922;-79
2023/04/10 12:42:55;;;;;;;;;;;;;;;16.26;50.12;99053.91;4987517;28;19930;-79
2023/04/10 12:45:20;;;;;;;;;;;;;;;16.36;49.45;99049.25;4988117;28;19928;-79
2023/04/10 12:47:52;;;;;;;;;;;;;;;16.44;48.94;99045.16;4986983;28;19925;-79
2023/04/10 12:50:19;;;;;;;;;;;;;;;16.45;48.40;99031.38;4994837;28;19991;-79
2023/04/10 12:52:45;;;;;;;;;;;;;;;16.51;47.47;99031.38;4987142;28;19947;-79